Time;durP1;ratioP1;P1;durP2;ratioP2;P2;SDS_P1;SDS_P2;PMS_P1;PMS_P2;Temp;Humidity;BMP_temperature;BMP_pressure;BME280_temperature;BME280_humidity;BME280_pressure;Samples;Min_cycle;Max_cycle;Signal;HPM_P1;HPM_P2
2022/06/19 00:01:16;;;;;;;23.10;3.85;;;;;;;;;;5051795;28;20033;-53
2022/06/19 00:03:48;;;;;;;23.58;4.78;;;;;;;;;;5051684;28;20057;-51
2022/06/19 00:06:15;;;;;;;20.63;4.53;;;;;;;;;;5051205;28;20021;-52
2022/06/19 00:08:42;;;;;;;24.80;4.80;;;;;;;;;;5051858;28;20032;-49
2022/06/19 00:11:14;;;;;;;23.50;4.60;;;;;;;;;;5051017;28;20097;-48
2022/06/19 00:13:41;;;;;;;31.00;5.40;;;;;;;;;;5051286;28;20032;-52
2022/06/19 00:16:08;;;;;;;29.50;5.38;;;;;;;;;;5050833;28;20036;-52
2022/06/19 00:18:38;;;;;;;26.27;4.90;;;;;;;;;;5049923;28;20391;-53
2022/06/19 00:21:06;;;;;;;19.80;4.72;;;;;;;;;;5054018;28;20033;-53
2022/06/19 00:23:33;;;;;;;28.10;4.70;;;;;;;;;;5054056;28;20025;-51
2022/06/19 00:26:00;;;;;;;27.52;5.45;;;;;;;;;;5054274;28;20426;-53
2022/06/19 00:28:27;;;;;;;24.00;4.72;;;;;;;;;;5055269;28;20044;-49
2022/06/19 00:30:54;;;;;;;22.85;5.03;;;;;;;;;;5054259;28;20021;-52
2022/06/19 00:33:21;;;;;;;24.17;4.40;;;;;;;;;;5054996;28;20099;-52
2022/06/19 00:35:48;;;;;;;23.55;4.72;;;;;;;;;;5054512;28;20029;-51
2022/06/19 00:38:15;;;;;;;23.40;5.00;;;;;;;;;;5054852;28;20491;-50
2022/06/19 00:40:42;;;;;;;22.67;4.82;;;;;;;;;;5053824;28;20061;-52
2022/06/19 00:43:09;;;;;;;23.25;4.28;;;;;;;;;;5054753;28;20025;-50
2022/06/19 00:45:38;;;;;;;23.27;5.10;;;;;;;;;;5054208;28;20032;-51
2022/06/19 00:48:16;;;;;;;20.65;5.07;;;;;;;;;;5053979;28;20040;-50
2022/06/19 00:50:45;;;;;;;21.77;4.88;;;;;;;;;;5054414;28;20040;-50
2022/06/19 00:53:17;;;;;;;20.92;4.20;;;;;;;;;;5054665;28;20086;-52
2022/06/19 00:55:43;;;;;;;;;;;;;;;;;;5054585;28;20036;-50
2022/06/19 00:58:13;;;;;;;20.23;4.13;;;;;;;;;;5053962;28;20263;-51
2022/06/19 01:00:40;;;;;;;20.83;4.20;;;;;;;;;;5054188;28;20041;-51
2022/06/19 01:03:18;;;;;;;22.25;4.45;;;;;;;;;;5054075;28;20095;-53
2022/06/19 01:05:45;;;;;;;23.52;4.50;;;;;;;;;;5054392;28;20041;-51
2022/06/19 01:08:12;;;;;;;19.92;4.75;;;;;;;;;;5054095;28;20021;-50
2022/06/19 01:10:40;;;;;;;26.55;4.53;;;;;;;;;;5053249;28;20079;-50
2022/06/19 01:13:08;;;;;;;22.58;4.32;;;;;;;;;;5053591;28;20716;-53
2022/06/19 01:15:35;;;;;;;22.33;4.32;;;;;;;;;;5053938;28;20025;-55
2022/06/19 01:18:05;;;;;;;19.90;3.60;;;;;;;;;;5053220;28;20116;-54
2022/06/19 01:20:33;;;;;;;24.33;4.53;;;;;;;;;;5054106;28;20087;-49
2022/06/19 01:23:00;;;;;;;17.25;3.90;;;;;;;;;;5054365;28;20102;-48
2022/06/19 01:25:29;;;;;;;19.50;4.35;;;;;;;;;;5053493;28;20029;-53
2022/06/19 01:30:45;;;;;;;18.25;4.30;;;;;;;;;;5053533;28;20513;-49
2022/06/19 01:33:14;;;;;;;18.65;4.00;;;;;;;;;;5052897;28;20171;-52
2022/06/19 01:35:41;;;;;;;16.95;4.05;;;;;;;;;;5053762;28;20107;-53
2022/06/19 01:38:10;;;;;;;16.30;4.20;;;;;;;;;;5053190;28;20041;-53
2022/06/19 01:40:37;;;;;;;18.55;4.03;;;;;;;;;;5053464;28;20024;-53
2022/06/19 01:43:05;;;;;;;20.23;4.35;;;;;;;;;;5053786;28;20510;-50
2022/06/19 01:45:32;;;;;;;18.88;4.00;;;;;;;;;;5053763;28;20033;-49
2022/06/19 01:48:00;;;;;;;16.27;4.97;;;;;;;;;;5052605;28;20360;-50
2022/06/19 01:50:29;;;;;;;18.02;3.95;;;;;;;;;;5053577;28;20037;-52
2022/06/19 01:53:10;;;;;;;17.35;3.88;;;;;;;;;;5053026;28;20111;-51
2022/06/19 01:55:38;;;;;;;19.33;4.32;;;;;;;;;;5053497;28;20410;-50
2022/06/19 01:58:06;;;;;;;19.27;3.97;;;;;;;;;;5053473;28;20055;-50
2022/06/19 02:00:34;;;;;;;18.98;4.30;;;;;;;;;;5052714;28;20438;-50
2022/06/19 02:03:01;;;;;;;16.10;3.35;;;;;;;;;;5035454;28;20036;-51
2022/06/19 02:05:28;;;;;;;17.70;3.72;;;;;;;;;;5052593;28;20029;-49
2022/06/19 02:07:55;;;;;;;16.27;3.42;;;;;;;;;;5051941;28;20025;-53
2022/06/19 02:10:23;;;;;;;17.65;4.15;;;;;;;;;;5052176;28;20021;-52
2022/06/19 02:12:49;;;;;;;14.15;3.88;;;;;;;;;;5053181;28;20038;-49
2022/06/19 02:15:16;;;;;;;11.82;3.50;;;;;;;;;;5052762;28;20036;-51
2022/06/19 02:17:48;;;;;;;21.17;4.47;;;;;;;;;;5052513;28;20021;-50
2022/06/19 02:20:14;;;;;;;14.63;3.40;;;;;;;;;;5052935;28;20128;-48
2022/06/19 02:22:41;;;;;;;17.27;3.63;;;;;;;;;;5052047;28;20044;-50
2022/06/19 02:25:09;;;;;;;18.10;3.40;;;;;;;;;;5052746;28;20094;-55
2022/06/19 02:27:36;;;;;;;15.68;3.70;;;;;;;;;;5052864;28;20021;-55
2022/06/19 02:30:05;;;;;;;16.42;4.25;;;;;;;;;;5052516;28;20044;-53
2022/06/19 02:32:34;;;;;;;12.68;3.13;;;;;;;;;;5052468;28;20049;-52
2022/06/19 02:35:01;;;;;;;13.68;3.63;;;;;;;;;;5051718;28;20624;-55
2022/06/19 02:37:31;;;;;;;13.77;3.35;;;;;;;;;;5052778;28;20029;-53
2022/06/19 02:40:16;;;;;;;12.48;3.38;;;;;;;;;;5051720;28;20082;-50
2022/06/19 02:42:44;;;;;;;15.52;3.05;;;;;;;;;;5051610;28;20043;-49
2022/06/19 02:45:19;;;;;;;11.40;3.10;;;;;;;;;;5052353;28;20112;-53
2022/06/19 02:47:47;;;;;;;16.38;3.47;;;;;;;;;;5052414;28;20068;-49
2022/06/19 02:50:17;;;;;;;10.70;3.45;;;;;;;;;;5053568;28;20088;-50
2022/06/19 02:52:45;;;;;;;11.32;3.40;;;;;;;;;;5053683;28;20021;-52
2022/06/19 02:55:12;;;;;;;14.70;3.65;;;;;;;;;;5052812;28;20399;-54
2022/06/19 02:57:39;;;;;;;10.35;3.42;;;;;;;;;;5049556;28;20037;-50
2022/06/19 03:00:07;;;;;;;14.27;3.35;;;;;;;;;;5051893;28;20056;-50
2022/06/19 03:02:34;;;;;;;11.00;2.90;;;;;;;;;;5052048;28;20033;-51
2022/06/19 03:05:02;;;;;;;8.93;3.03;;;;;;;;;;5051986;28;20067;-53
2022/06/19 03:07:30;;;;;;;10.18;3.22;;;;;;;;;;5051816;28;20373;-50
2022/06/19 03:09:57;;;;;;;12.38;3.53;;;;;;;;;;5051650;28;20032;-50
2022/06/19 03:12:24;;;;;;;11.15;3.03;;;;;;;;;;5052348;28;20029;-51
2022/06/19 03:14:51;;;;;;;12.90;3.67;;;;;;;;;;5051939;28;20032;-49
2022/06/19 03:17:20;;;;;;;9.90;2.78;;;;;;;;;;5051615;28;20029;-51
2022/06/19 03:19:48;;;;;;;10.82;3.40;;;;;;;;;;5051186;28;20041;-54
2022/06/19 03:22:14;;;;;;;12.65;3.20;;;;;;;;;;5052501;28;20033;-52
2022/06/19 03:24:41;;;;;;;12.43;2.90;;;;;;;;;;5051974;28;20029;-57
2022/06/19 03:27:10;;;;;;;10.57;3.08;;;;;;;;;;5051502;28;20438;-50
2022/06/19 03:29:37;;;;;;;11.98;3.10;;;;;;;;;;5052120;28;20120;-48
2022/06/19 03:32:04;;;;;;;7.65;2.40;;;;;;;;;;5051162;28;20053;-51
2022/06/19 03:34:32;;;;;;;7.43;2.72;;;;;;;;;;5051570;28;20060;-49
2022/06/19 03:36:59;;;;;;;10.70;3.30;;;;;;;;;;5051603;28;20499;-56
2022/06/19 03:39:26;;;;;;;7.68;2.58;;;;;;;;;;5052163;28;20029;-53
2022/06/19 03:41:53;;;;;;;9.27;2.83;;;;;;;;;;5051819;28;20028;-54
2022/06/19 03:44:19;;;;;;;11.20;2.85;;;;;;;;;;5052082;28;20025;-52
2022/06/19 03:46:46;;;;;;;7.93;2.47;;;;;;;;;;5051315;28;20036;-50
2022/06/19 03:49:13;;;;;;;10.75;2.88;;;;;;;;;;5051755;28;20112;-54
2022/06/19 03:51:40;;;;;;;10.50;3.10;;;;;;;;;;5051844;28;20479;-54
2022/06/19 03:54:08;;;;;;;6.78;2.72;;;;;;;;;;5052793;28;20060;-52
2022/06/19 03:56:35;;;;;;;9.30;2.72;;;;;;;;;;5054982;28;20041;-52
2022/06/19 03:59:03;;;;;;;7.78;2.88;;;;;;;;;;5055780;28;20086;-51
2022/06/19 04:01:34;;;;;;;11.30;2.85;;;;;;;;;;5055235;28;20550;-51
2022/06/19 04:04:01;;;;;;;9.88;3.00;;;;;;;;;;5055484;28;20022;-49
2022/06/19 04:06:30;;;;;;;12.13;3.00;;;;;;;;;;5055488;28;20041;-54
2022/06/19 04:08:58;;;;;;;9.50;2.70;;;;;;;;;;5054652;28;20029;-53
2022/06/19 04:11:26;;;;;;;9.32;2.65;;;;;;;;;;5055693;28;20045;-56
2022/06/19 04:13:53;;;;;;;9.82;3.03;;;;;;;;;;5054962;28;20040;-49
2022/06/19 04:16:22;;;;;;;10.82;2.90;;;;;;;;;;5055196;28;20041;-49
2022/06/19 04:18:49;;;;;;;11.68;2.40;;;;;;;;;;5054593;28;20099;-49
2022/06/19 04:21:18;;;;;;;10.93;3.03;;;;;;;;;;5053811;28;20036;-50
2022/06/19 04:23:45;;;;;;;10.13;3.28;;;;;;;;;;5035981;28;20052;-51
2022/06/19 04:26:14;;;;;;;9.50;2.40;;;;;;;;;;5054607;28;20041;-53
2022/06/19 04:28:41;;;;;;;8.65;2.55;;;;;;;;;;5055029;28;20475;-54
2022/06/19 04:31:09;;;;;;;8.70;2.67;;;;;;;;;;5055324;28;20029;-52
2022/06/19 04:33:39;;;;;;;9.80;2.33;;;;;;;;;;5054024;28;20451;-49
2022/06/19 04:36:10;;;;;;;10.07;2.13;;;;;;;;;;5055174;28;20424;-49
2022/06/19 04:38:37;;;;;;;7.30;2.58;;;;;;;;;;5054224;28;20032;-49
2022/06/19 04:41:04;;;;;;;9.27;2.50;;;;;;;;;;5053268;28;20039;-48
2022/06/19 04:43:31;;;;;;;7.70;2.50;;;;;;;;;;5055141;28;20043;-53
2022/06/19 04:46:02;;;;;;;10.73;2.38;;;;;;;;;;5054197;28;20117;-53
2022/06/19 04:48:29;;;;;;;6.68;2.50;;;;;;;;;;5054055;28;20433;-54
2022/06/19 04:50:56;;;;;;;10.40;2.75;;;;;;;;;;5054871;28;20562;-48
2022/06/19 04:53:23;;;;;;;11.15;2.85;;;;;;;;;;5054812;28;20029;-50
2022/06/19 04:55:50;;;;;;;8.73;2.65;;;;;;;;;;5053891;28;20037;-53
2022/06/19 04:58:22;;;;;;;8.07;2.65;;;;;;;;;;5054770;28;20036;-50
2022/06/19 05:00:52;;;;;;;8.52;2.30;;;;;;;;;;5052449;28;20036;-51
2022/06/19 05:03:20;;;;;;;12.65;2.83;;;;;;;;;;5054122;28;20518;-52
2022/06/19 05:05:47;;;;;;;8.48;2.28;;;;;;;;;;5052674;28;20120;-51
2022/06/19 05:08:15;;;;;;;6.13;2.72;;;;;;;;;;5054639;28;20483;-53
2022/06/19 05:10:42;;;;;;;7.78;2.78;;;;;;;;;;5053704;28;20048;-50
2022/06/19 05:13:26;;;;;;;10.65;2.60;;;;;;;;;;5053937;28;20025;-49
2022/06/19 05:16:02;;;;;;;8.63;2.40;;;;;;;;;;5054315;28;20052;-52
2022/06/19 05:18:29;;;;;;;9.68;2.60;;;;;;;;;;5054361;28;20033;-48
2022/06/19 05:20:56;;;;;;;7.28;2.95;;;;;;;;;;5053367;28;20025;-51
2022/06/19 05:23:23;;;;;;;12.18;2.85;;;;;;;;;;5053527;28;20029;-53
2022/06/19 05:25:50;;;;;;;8.70;2.60;;;;;;;;;;5054126;28;20036;-54
2022/06/19 05:28:17;;;;;;;8.18;2.38;;;;;;;;;;5053791;28;20479;-54
2022/06/19 05:30:44;;;;;;;12.82;2.75;;;;;;;;;;5053146;28;20036;-49
2022/06/19 05:33:11;;;;;;;6.80;2.50;;;;;;;;;;5052495;28;20049;-54
2022/06/19 05:35:38;;;;;;;8.35;2.33;;;;;;;;;;5053831;28;20036;-54
2022/06/19 05:38:06;;;;;;;9.75;2.83;;;;;;;;;;5053094;28;20509;-52
2022/06/19 05:40:33;;;;;;;9.02;2.65;;;;;;;;;;5052781;28;20037;-52
2022/06/19 05:43:00;;;;;;;10.02;2.47;;;;;;;;;;5053928;28;20040;-52
2022/06/19 05:45:27;;;;;;;6.80;2.58;;;;;;;;;;5053696;28;20024;-53
2022/06/19 05:47:54;;;;;;;10.00;2.58;;;;;;;;;;5053203;28;20029;-51
2022/06/19 05:50:20;;;;;;;11.43;3.05;;;;;;;;;;5053676;28;20035;-52
2022/06/19 05:52:47;;;;;;;8.95;2.72;;;;;;;;;;5053648;28;20060;-54
2022/06/19 05:55:14;;;;;;;9.95;2.42;;;;;;;;;;5052892;28;20048;-52
2022/06/19 05:57:41;;;;;;;8.50;2.22;;;;;;;;;;5053619;28;20065;-53
2022/06/19 06:00:09;;;;;;;7.47;2.50;;;;;;;;;;5053106;28;20044;-52
2022/06/19 06:02:36;;;;;;;9.73;2.85;;;;;;;;;;5053199;28;20029;-56
2022/06/19 06:05:04;;;;;;;9.35;2.30;;;;;;;;;;5053513;28;20115;-52
2022/06/19 06:07:31;;;;;;;7.82;2.33;;;;;;;;;;5052463;28;20017;-53
2022/06/19 06:09:58;;;;;;;7.10;2.47;;;;;;;;;;5052592;28;20032;-54
2022/06/19 06:12:25;;;;;;;8.32;2.50;;;;;;;;;;5053358;28;20422;-55
2022/06/19 06:14:53;;;;;;;10.80;3.05;;;;;;;;;;5053178;28;20101;-52
2022/06/19 06:17:23;;;;;;;5.47;2.28;;;;;;;;;;5052379;28;20041;-51
2022/06/19 06:19:50;;;;;;;8.30;2.60;;;;;;;;;;5052080;28;20039;-56
2022/06/19 06:22:17;;;;;;;6.45;2.22;;;;;;;;;;5034424;28;20147;-51
2022/06/19 06:24:44;;;;;;;8.18;2.55;;;;;;;;;;5051259;28;20041;-49
2022/06/19 06:27:11;;;;;;;9.40;2.40;;;;;;;;;;5051431;28;20021;-51
2022/06/19 06:29:38;;;;;;;6.03;2.47;;;;;;;;;;5052421;28;20040;-52
2022/06/19 06:32:05;;;;;;;5.32;2.38;;;;;;;;;;5211274;22;20139;-51
2022/06/19 06:34:34;;;;;;;6.85;2.10;;;;;;;;;;5085793;28;20120;-48
2022/06/19 06:37:01;;;;;;;9.15;2.50;;;;;;;;;;5091704;28;20066;-52
2022/06/19 06:39:27;;;;;;;7.35;2.33;;;;;;;;;;5092766;28;20507;-53
2022/06/19 06:41:54;;;;;;;7.72;2.03;;;;;;;;;;5092467;28;20020;-52
2022/06/19 06:44:21;;;;;;;9.50;2.72;;;;;;;;;;5092506;28;20085;-52
2022/06/19 06:46:48;;;;;;;8.55;2.67;;;;;;;;;;5092193;28;20358;-51
2022/06/19 06:49:15;;;;;;;7.35;2.08;;;;;;;;;;5092925;28;20020;-48
2022/06/19 06:51:42;;;;;;;5.88;2.00;;;;;;;;;;5092019;28;20103;-53
2022/06/19 06:54:09;;;;;;;6.88;2.30;;;;;;;;;;5092557;28;20107;-51
2022/06/19 06:56:36;;;;;;;10.48;2.67;;;;;;;;;;5092633;28;20032;-50
2022/06/19 06:59:03;;;;;;;8.90;2.22;;;;;;;;;;5091910;28;20512;-54
2022/06/19 07:01:32;;;;;;;12.18;2.72;;;;;;;;;;5091643;28;20432;-48
2022/06/19 07:03:59;;;;;;;5.97;2.33;;;;;;;;;;5092517;28;20026;-51
2022/06/19 07:06:28;;;;;;;7.40;2.50;;;;;;;;;;5091878;28;20095;-51
2022/06/19 07:08:55;;;;;;;8.85;2.42;;;;;;;;;;5092025;28;20052;-49
2022/06/19 07:11:24;;;;;;;7.25;2.10;;;;;;;;;;5092218;28;20028;-54
2022/06/19 07:13:51;;;;;;;10.43;2.50;;;;;;;;;;5091588;28;20043;-51
2022/06/19 07:16:18;;;;;;;4.05;2.10;;;;;;;;;;5091834;28;20016;-53
2022/06/19 07:18:45;;;;;;;8.43;2.10;;;;;;;;;;5092432;28;20032;-53
2022/06/19 07:21:12;;;;;;;6.53;2.35;;;;;;;;;;5091427;28;20032;-51
2022/06/19 07:23:39;;;;;;;6.25;2.13;;;;;;;;;;5092438;28;20098;-52
2022/06/19 07:26:10;;;;;;;6.70;2.28;;;;;;;;;;5092388;28;20112;-53
2022/06/19 07:28:37;;;;;;;6.07;1.95;;;;;;;;;;5092036;28;20032;-52
2022/06/19 07:31:04;;;;;;;8.65;2.53;;;;;;;;;;5095749;28;20024;-51
2022/06/19 07:33:31;;;;;;;7.63;2.63;;;;;;;;;;5096651;28;20031;-52
2022/06/19 07:35:58;;;;;;;7.07;2.03;;;;;;;;;;5095889;28;20039;-49
2022/06/19 07:38:25;;;;;;;5.93;1.90;;;;;;;;;;5095542;28;20024;-50
2022/06/19 07:40:52;;;;;;;6.45;2.25;;;;;;;;;;5096268;28;20073;-49
2022/06/19 07:43:19;;;;;;;6.40;1.95;;;;;;;;;;5096279;28;20028;-54
2022/06/19 07:45:46;;;;;;;7.60;2.40;;;;;;;;;;5095877;28;20024;-50
2022/06/19 07:50:58;;;;;;;7.07;2.40;;;;;;;;;;5096485;28;20500;-54
2022/06/19 07:53:25;;;;;;;5.72;2.20;;;;;;;;;;5095197;28;20028;-49
2022/06/19 07:55:52;;;;;;;6.88;1.75;;;;;;;;;;5096211;28;20020;-51
2022/06/19 07:58:19;;;;;;;8.95;2.20;;;;;;;;;;5095908;28;20475;-53
2022/06/19 08:00:46;;;;;;;10.32;2.53;;;;;;;;;;5095648;28;20028;-54
2022/06/19 08:03:13;;;;;;;8.30;1.98;;;;;;;;;;5096032;28;20027;-51
2022/06/19 08:05:43;;;;;;;7.50;2.17;;;;;;;;;;5094825;28;20496;-54
2022/06/19 08:08:16;;;;;;;7.80;2.22;;;;;;;;;;5095087;28;20024;-55
2022/06/19 08:10:43;;;;;;;4.55;1.88;;;;;;;;;;5095457;28;20024;-55
2022/06/19 08:13:12;;;;;;;11.38;2.65;;;;;;;;;;5095516;28;20028;-53
2022/06/19 08:15:38;;;;;;;6.53;2.40;;;;;;;;;;5095021;28;20062;-52
2022/06/19 08:18:06;;;;;;;10.93;2.88;;;;;;;;;;5095059;28;20469;-50
2022/06/19 08:20:33;;;;;;;7.93;2.28;;;;;;;;;;5095412;28;20055;-51
2022/06/19 08:23:00;;;;;;;9.65;2.40;;;;;;;;;;5094384;28;20052;-54
2022/06/19 08:25:27;;;;;;;7.45;2.08;;;;;;;;;;5095627;28;20035;-50
2022/06/19 08:27:54;;;;;;;6.80;2.42;;;;;;;;;;5076909;28;20047;-54
2022/06/19 08:30:23;;;;;;;8.25;2.92;;;;;;;;;;5095109;28;20024;-54
2022/06/19 08:32:50;;;;;;;6.03;2.10;;;;;;;;;;5094525;28;20079;-50
2022/06/19 08:35:17;;;;;;;8.95;2.60;;;;;;;;;;5095475;28;20028;-55
2022/06/19 08:37:45;;;;;;;9.27;2.28;;;;;;;;;;5094725;28;20110;-54
2022/06/19 08:40:18;;;;;;;7.38;1.95;;;;;;;;;;5094273;28;20028;-51
2022/06/19 08:42:48;;;;;;;5.38;2.10;;;;;;;;;;5095232;28;20032;-55
2022/06/19 08:45:23;;;;;;;7.32;2.40;;;;;;;;;;5094932;28;20032;-54
2022/06/19 08:48:00;;;;;;;8.40;2.42;;;;;;;;;;5094444;28;20029;-52
2022/06/19 08:50:31;;;;;;;6.68;1.90;;;;;;;;;;5094955;28;20032;-47
2022/06/19 08:53:08;;;;;;;7.55;2.15;;;;;;;;;;5093981;28;20024;-50
2022/06/19 08:55:53;;;;;;;7.22;2.38;;;;;;;;;;5094980;28;20448;-51
2022/06/19 08:58:38;;;;;;;6.00;2.33;;;;;;;;;;5094407;28;20416;-51
2022/06/19 09:01:31;;;;;;;5.10;1.88;;;;;;;;;;5094229;28;20036;-48
2022/06/19 09:07:04;;;;;;;8.30;2.20;;;;;;;;;;5094881;28;20043;-52
2022/06/19 09:09:45;;;;;;;5.05;2.20;;;;;;;;;;5093921;28;20032;-50
2022/06/19 09:12:15;;;;;;;3.95;2.00;;;;;;;;;;5094731;28;20074;-55
2022/06/19 09:14:57;;;;;;;6.22;2.25;;;;;;;;;;5094187;28;20155;-51
2022/06/19 09:17:44;;;;;;;5.10;1.90;;;;;;;;;;5094150;28;20032;-55
2022/06/19 09:20:24;;;;;;;6.97;1.90;;;;;;;;;;5043286;28;20047;-53
2022/06/19 09:23:09;;;;;;;6.55;2.17;;;;;;;;;;5093724;28;20043;-51
2022/06/19 09:25:46;;;;;;;7.78;2.40;;;;;;;;;;5094679;28;20373;-52
2022/06/19 09:28:16;;;;;;;5.63;2.00;;;;;;;;;;5094336;28;20016;-50
2022/06/19 09:30:50;;;;;;;7.40;2.20;;;;;;;;;;5093477;28;20490;-53
2022/06/19 09:33:21;;;;;;;5.00;2.00;;;;;;;;;;5093944;28;20052;-51
2022/06/19 09:35:50;;;;;;;4.70;2.03;;;;;;;;;;5093538;28;20097;-55
2022/06/19 09:38:31;;;;;;;8.68;2.17;;;;;;;;;;5094087;28;20436;-49
2022/06/19 09:41:00;;;;;;;8.13;2.45;;;;;;;;;;5093237;28;20028;-52
2022/06/19 09:43:27;;;;;;;6.28;2.25;;;;;;;;;;5093532;28;20382;-52
2022/06/19 09:45:57;;;;;;;5.05;1.85;;;;;;;;;;5093588;28;20023;-52
2022/06/19 09:48:24;;;;;;;3.63;1.77;;;;;;;;;;5093404;28;20024;-52
2022/06/19 09:50:55;;;;;;;6.88;2.58;;;;;;;;;;5093714;28;20053;-48
2022/06/19 09:53:41;;;;;;;6.38;2.20;;;;;;;;;;5092712;28;20016;-49
2022/06/19 09:56:11;;;;;;;8.73;2.10;;;;;;;;;;5093261;28;20066;-54
2022/06/19 09:58:46;;;;;;;5.65;2.10;;;;;;;;;;5093118;28;20497;-49
2022/06/19 10:01:13;;;;;;;5.88;2.30;;;;;;;;;;5093453;28;20024;-52
2022/06/19 10:03:40;;;;;;;5.90;2.10;;;;;;;;;;5093530;28;20089;-51
2022/06/19 10:06:10;;;;;;;4.60;1.98;;;;;;;;;;5093348;28;20031;-52
2022/06/19 10:08:57;;;;;;;5.40;2.00;;;;;;;;;;5092878;28;20499;-51
2022/06/19 10:11:27;;;;;;;6.25;1.90;;;;;;;;;;5093513;28;20469;-50
2022/06/19 10:14:04;;;;;;;5.53;2.10;;;;;;;;;;5093213;28;20028;-51
2022/06/19 10:16:37;;;;;;;4.82;2.00;;;;;;;;;;5092976;28;20047;-50
2022/06/19 10:19:15;;;;;;;8.15;2.30;;;;;;;;;;5093131;28;20063;-51
2022/06/19 10:24:37;;;;;;;7.15;1.85;;;;;;;;;;5093456;28;20054;-51
2022/06/19 10:27:09;;;;;;;2.72;1.58;;;;;;;;;;5093278;28;20024;-50
2022/06/19 10:29:49;;;;;;;3.95;1.80;;;;;;;;;;5092607;28;20073;-53
2022/06/19 10:32:16;;;;;;;5.72;2.03;;;;;;;;;;5092753;28;20047;-54
2022/06/19 10:35:01;;;;;;;4.85;1.88;;;;;;;;;;5092079;28;20036;-51
2022/06/19 10:37:49;;;;;;;5.40;2.05;;;;;;;;;;5092659;28;20563;-51
2022/06/19 10:40:16;;;;;;;4.47;1.73;;;;;;;;;;5092127;28;20028;-51
2022/06/19 10:42:44;;;;;;;7.43;2.25;;;;;;;;;;5092511;28;20040;-51
2022/06/19 10:45:23;;;;;;;6.70;2.17;;;;;;;;;;5092357;28;20059;-55
2022/06/19 10:48:16;;;;;;;5.22;1.90;;;;;;;;;;5092722;28;20031;-53
2022/06/19 10:50:55;;;;;;;3.45;1.85;;;;;;;;;;5088643;28;20043;-54
2022/06/19 10:53:28;;;;;;;6.35;2.03;;;;;;;;;;5092984;28;20067;-53
2022/06/19 10:55:55;;;;;;;4.00;1.73;;;;;;;;;;5092285;28;20081;-53
2022/06/19 10:58:24;;;;;;;3.47;1.70;;;;;;;;;;5092058;28;20375;-52
2022/06/19 11:00:59;;;;;;;4.60;1.98;;;;;;;;;;5091717;28;20036;-50
2022/06/19 11:06:20;;;;;;;4.13;1.85;;;;;;;;;;5092867;28;20046;-54
2022/06/19 11:08:50;;;;;;;4.25;1.67;;;;;;;;;;5091878;28;20055;-51
2022/06/19 11:11:18;;;;;;;3.83;1.70;;;;;;;;;;5092347;28;20036;-49
2022/06/19 11:13:59;;;;;;;3.35;1.60;;;;;;;;;;5092020;28;20375;-53
2022/06/19 11:16:27;;;;;;;3.30;1.60;;;;;;;;;;5092029;28;20482;-49
2022/06/19 11:18:54;;;;;;;3.90;1.98;;;;;;;;;;5092121;28;20047;-49
2022/06/19 11:21:33;;;;;;;3.70;1.80;;;;;;;;;;5091763;28;20028;-55
2022/06/19 11:24:05;;;;;;;3.75;1.60;;;;;;;;;;5092261;28;20031;-56
2022/06/19 11:26:40;;;;;;;3.13;1.77;;;;;;;;;;5091671;28;20509;-50
2022/06/19 11:29:20;;;;;;;4.63;1.63;;;;;;;;;;5092318;28;20028;-51
2022/06/19 11:32:05;;;;;;;4.05;1.58;;;;;;;;;;5091223;28;20459;-50
2022/06/19 11:34:46;;;;;;;8.63;1.88;;;;;;;;;;5092352;28;20028;-51
2022/06/19 11:37:21;;;;;;;3.95;1.60;;;;;;;;;;5091334;28;20067;-53
2022/06/19 11:39:50;;;;;;;3.72;1.77;;;;;;;;;;5092239;28;20044;-48
2022/06/19 11:42:26;;;;;;;2.60;1.52;;;;;;;;;;5091900;28;20028;-52
2022/06/19 11:44:54;;;;;;;4.97;1.77;;;;;;;;;;5091188;28;20036;-50
2022/06/19 11:47:34;;;;;;;4.00;1.60;;;;;;;;;;5092363;28;20058;-51
2022/06/19 11:50:21;;;;;;;3.05;1.63;;;;;;;;;;5091876;28;20024;-52
2022/06/19 11:53:09;;;;;;;3.97;1.70;;;;;;;;;;5091419;28;20039;-49
2022/06/19 11:55:47;;;;;;;4.10;1.73;;;;;;;;;;5051523;28;20040;-52
2022/06/19 11:58:29;;;;;;;3.22;1.80;;;;;;;;;;5091866;28;20039;-52
2022/06/19 12:00:56;;;;;;;;;;;;;;;;;;5092591;28;20029;-54
2022/06/19 12:03:27;;;;;;;4.32;1.40;;;;;;;;;;5092020;28;19908;-51
2022/06/19 12:05:56;;;;;;;2.90;1.33;;;;;;;;;;5091314;28;20038;-55
2022/06/19 12:08:28;;;;;;;3.45;1.45;;;;;;;;;;5089062;28;20107;-51
2022/06/19 12:10:58;;;;;;;4.00;1.70;;;;;;;;;;5070594;28;20082;-54
2022/06/19 12:13:29;;;;;;;3.78;1.83;;;;;;;;;;5071743;28;20028;-54
2022/06/19 12:16:01;;;;;;;5.25;1.80;;;;;;;;;;5073524;28;20486;-50
2022/06/19 12:18:30;;;;;;;3.28;1.80;;;;;;;;;;5075159;28;20525;-48
2022/06/19 12:21:16;;;;;;;2.47;1.60;;;;;;;;;;5074467;28;20074;-52
2022/06/19 12:23:47;;;;;;;4.57;1.73;;;;;;;;;;5075360;28;20028;-48
2022/06/19 12:26:19;;;;;;;3.63;1.80;;;;;;;;;;5074420;28;20442;-56
2022/06/19 12:28:52;;;;;;;4.57;1.60;;;;;;;;;;5075255;28;20023;-51
2022/06/19 12:31:20;;;;;;;4.80;1.50;;;;;;;;;;5075081;28;20112;-49
2022/06/19 12:34:03;;;;;;;3.63;1.80;;;;;;;;;;5094464;28;20083;-53
2022/06/19 12:36:36;;;;;;;2.67;1.52;;;;;;;;;;5095313;28;20489;-54
2022/06/19 12:39:29;;;;;;;3.05;1.80;;;;;;;;;;5094359;28;20042;-49
2022/06/19 12:42:15;;;;;;;4.03;1.55;;;;;;;;;;5091103;28;20405;-49
2022/06/19 12:45:00;;;;;;;3.38;1.67;;;;;;;;;;5094528;28;20062;-49
2022/06/19 12:47:27;;;;;;;2.88;1.30;;;;;;;;;;5094509;28;20106;-53
2022/06/19 12:49:54;;;;;;;5.22;1.60;;;;;;;;;;5095052;28;20561;-50
2022/06/19 12:52:23;;;;;;;4.85;1.70;;;;;;;;;;5094820;28;20028;-51
2022/06/19 12:55:03;;;;;;;3.70;1.45;;;;;;;;;;5094254;28;20028;-51
2022/06/19 12:57:48;;;;;;;2.13;1.40;;;;;;;;;;5093989;28;20030;-51
2022/06/19 13:00:36;;;;;;;2.42;1.38;;;;;;;;;;5094766;28;20032;-53
2022/06/19 13:03:03;;;;;;;3.97;1.48;;;;;;;;;;5094311;28;20042;-53
2022/06/19 13:05:48;;;;;;;5.65;1.83;;;;;;;;;;5094797;28;20024;-50
2022/06/19 13:08:39;;;;;;;3.50;1.63;;;;;;;;;;5093682;28;20074;-53
2022/06/19 13:11:18;;;;;;;3.17;1.50;;;;;;;;;;5094672;28;20027;-53
2022/06/19 13:13:45;;;;;;;2.78;1.30;;;;;;;;;;5094177;28;20514;-53
2022/06/19 13:16:18;;;;;;;6.03;1.90;;;;;;;;;;5094167;28;20024;-50
2022/06/19 13:19:04;;;;;;;2.47;1.60;;;;;;;;;;5094386;28;20044;-52
2022/06/19 13:21:30;;;;;;;4.70;1.52;;;;;;;;;;5093692;28;20028;-49
2022/06/19 13:24:03;;;;;;;4.60;1.70;;;;;;;;;;5094265;28;20043;-54
2022/06/19 13:29:26;;;;;;;4.57;1.75;;;;;;;;;;5093868;28;20517;-52
2022/06/19 13:32:07;;;;;;;6.07;1.60;;;;;;;;;;5093789;28;20078;-49
2022/06/19 13:34:40;;;;;;;5.70;1.60;;;;;;;;;;5093371;28;20024;-52
2022/06/19 13:37:07;;;;;;;3.15;1.42;;;;;;;;;;5092944;28;20398;-55
2022/06/19 13:40:00;;;;;;;6.82;1.35;;;;;;;;;;5094253;28;20367;-51
2022/06/19 13:42:35;;;;;;;3.75;1.40;;;;;;;;;;5089003;28;20071;-52
2022/06/19 13:45:02;;;;;;;2.85;1.25;;;;;;;;;;5094076;28;20030;-50
2022/06/19 13:47:29;;;;;;;3.15;1.48;;;;;;;;;;5093333;28;20036;-52
2022/06/19 13:50:13;;;;;;;3.03;1.30;;;;;;;;;;5093441;28;20020;-54
2022/06/19 13:52:58;;;;;;;4.50;1.17;;;;;;;;;;5093827;28;20024;-52
2022/06/19 13:55:25;;;;;;;2.67;1.38;;;;;;;;;;5092922;28;20386;-48
2022/06/19 13:58:00;;;;;;;3.45;1.20;;;;;;;;;;5093742;28;20434;-50
2022/06/19 14:00:41;;;;;;;3.00;1.33;;;;;;;;;;5093112;28;20439;-50
2022/06/19 14:03:17;;;;;;;4.53;1.77;;;;;;;;;;5093529;28;20032;-54
2022/06/19 14:05:48;;;;;;;5.60;1.48;;;;;;;;;;5093433;28;20120;-54
2022/06/19 14:08:21;;;;;;;3.10;1.40;;;;;;;;;;5092597;28;20016;-53
2022/06/19 14:10:48;;;;;;;3.67;1.92;;;;;;;;;;5093538;28;20503;-48
2022/06/19 14:13:27;;;;;;;3.42;1.50;;;;;;;;;;5092728;28;20028;-51
2022/06/19 14:16:12;;;;;;;4.30;1.65;;;;;;;;;;5093546;28;20050;-54
2022/06/19 14:18:45;;;;;;;3.05;1.40;;;;;;;;;;5093054;28;20036;-52
2022/06/19 14:21:15;;;;;;;5.43;1.30;;;;;;;;;;5092669;28;20494;-49
2022/06/19 14:24:01;;;;;;;6.28;1.60;;;;;;;;;;5092200;28;20036;-56
2022/06/19 14:26:28;;;;;;;1.85;1.30;;;;;;;;;;5092860;28;20035;-51
2022/06/19 14:29:10;;;;;;;3.40;1.30;;;;;;;;;;5093014;28;20418;-54
2022/06/19 14:31:37;;;;;;;3.30;1.50;;;;;;;;;;5092149;28;20035;-53
2022/06/19 14:34:04;;;;;;;3.60;1.60;;;;;;;;;;5092860;28;20036;-56
2022/06/19 14:36:32;;;;;;;4.28;1.20;;;;;;;;;;5092404;28;20042;-51
2022/06/19 14:39:02;;;;;;;2.42;1.30;;;;;;;;;;5092079;28;20036;-48
2022/06/19 14:41:32;;;;;;;5.45;1.90;;;;;;;;;;5092196;28;20023;-51
2022/06/19 14:44:01;;;;;;;5.82;1.75;;;;;;;;;;5092642;28;20028;-49
2022/06/19 14:46:34;;;;;;;3.83;1.40;;;;;;;;;;5091892;28;20058;-52
2022/06/19 14:49:16;;;;;;;2.90;1.38;;;;;;;;;;5092611;28;20416;-53
2022/06/19 14:51:43;;;;;;;4.22;1.42;;;;;;;;;;5091681;28;20027;-54
2022/06/19 14:54:19;;;;;;;4.82;1.60;;;;;;;;;;5092064;28;20028;-51
2022/06/19 14:56:58;;;;;;;4.60;1.42;;;;;;;;;;5092210;28;20056;-55
2022/06/19 14:59:34;;;;;;;3.47;1.50;;;;;;;;;;5092683;28;20043;-53
2022/06/19 15:02:02;;;;;;;3.95;1.52;;;;;;;;;;5091710;28;20078;-54
2022/06/19 15:04:31;;;;;;;4.32;1.50;;;;;;;;;;5092145;28;20036;-52
2022/06/19 15:07:01;;;;;;;4.57;1.60;;;;;;;;;;5092330;28;20077;-52
2022/06/19 15:09:28;;;;;;;4.72;1.60;;;;;;;;;;5091830;28;20035;-56
2022/06/19 15:12:07;;;;;;;3.60;1.30;;;;;;;;;;5091783;28;20028;-51
2022/06/19 15:14:35;;;;;;;3.05;1.52;;;;;;;;;;5092106;28;20032;-54
2022/06/19 15:17:05;;;;;;;3.42;1.40;;;;;;;;;;5091596;28;20043;-52
2022/06/19 15:19:33;;;;;;;2.17;1.35;;;;;;;;;;5091930;28;20052;-50